sensor_id;sensor_type;location;lat;lon;timestamp;P1;durP1;ratioP1;P2;durP2;ratioP2
6898;SDS011;3488;42.616;23.350;2022-09-28T00:00:35;3.03;;;2.25;;
6898;SDS011;3488;42.616;23.350;2022-09-28T00:03:05;2.72;;;1.80;;
6898;SDS011;3488;42.616;23.350;2022-09-28T00:05:32;2.65;;;2.13;;
6898;SDS011;3488;42.616;23.350;2022-09-28T00:07:59;3.30;;;2.13;;
6898;SDS011;3488;42.616;23.350;2022-09-28T00:10:26;2.03;;;1.90;;
6898;SDS011;3488;42.616;23.350;2022-09-28T00:12:53;1.92;;;1.85;;
6898;SDS011;3488;42.616;23.350;2022-09-28T00:15:20;2.25;;;1.98;;
6898;SDS011;3488;42.616;23.350;2022-09-28T00:17:49;7.90;;;3.10;;
6898;SDS011;3488;42.616;23.350;2022-09-28T00:20:17;2.22;;;2.00;;
6898;SDS011;3488;42.616;23.350;2022-09-28T00:22:44;2.53;;;2.40;;
6898;SDS011;3488;42.616;23.350;2022-09-28T00:25:11;2.85;;;2.40;;
6898;SDS011;3488;42.616;23.350;2022-09-28T00:27:40;4.63;;;2.42;;
6898;SDS011;3488;42.616;23.350;2022-09-28T00:30:08;4.00;;;2.00;;
6898;SDS011;3488;42.616;23.350;2022-09-28T00:32:35;3.15;;;2.85;;
6898;SDS011;3488;42.616;23.350;2022-09-28T00:35:02;4.65;;;2.38;;
6898;SDS011;3488;42.616;23.350;2022-09-28T00:37:31;1.77;;;1.67;;
6898;SDS011;3488;42.616;23.350;2022-09-28T00:39:58;4.05;;;2.20;;
6898;SDS011;3488;42.616;23.350;2022-09-28T00:42:25;1.90;;;1.80;;
6898;SDS011;3488;42.616;23.350;2022-09-28T00:44:52;5.63;;;2.72;;
6898;SDS011;3488;42.616;23.350;2022-09-28T00:47:30;2.67;;;1.85;;
6898;SDS011;3488;42.616;23.350;2022-09-28T00:50:15;7.93;;;2.13;;
6898;SDS011;3488;42.616;23.350;2022-09-28T00:52:50;6.53;;;2.17;;
6898;SDS011;3488;42.616;23.350;2022-09-28T00:55:23;1.95;;;1.85;;
6898;SDS011;3488;42.616;23.350;2022-09-28T00:57:56;1.75;;;1.65;;
6898;SDS011;3488;42.616;23.350;2022-09-28T01:00:25;1.77;;;1.65;;
6898;SDS011;3488;42.616;23.350;2022-09-28T01:02:53;2.35;;;2.17;;
6898;SDS011;3488;42.616;23.350;2022-09-28T01:05:20;3.70;;;1.73;;
6898;SDS011;3488;42.616;23.350;2022-09-28T01:07:50;1.90;;;1.80;;
6898;SDS011;3488;42.616;23.350;2022-09-28T01:10:17;1.60;;;1.60;;
6898;SDS011;3488;42.616;23.350;2022-09-28T01:12:44;2.85;;;1.80;;
6898;SDS011;3488;42.616;23.350;2022-09-28T01:15:11;4.93;;;1.70;;
6898;SDS011;3488;42.616;23.350;2022-09-28T01:17:43;1.50;;;1.50;;
6898;SDS011;3488;42.616;23.350;2022-09-28T01:20:25;3.90;;;1.88;;
6898;SDS011;3488;42.616;23.350;2022-09-28T01:23:06;3.10;;;1.48;;
6898;SDS011;3488;42.616;23.350;2022-09-28T01:26:08;1.90;;;1.70;;
6898;SDS011;3488;42.616;23.350;2022-09-28T01:28:45;1.88;;;1.77;;
6898;SDS011;3488;42.616;23.350;2022-09-28T01:31:17;2.05;;;1.95;;
6898;SDS011;3488;42.616;23.350;2022-09-28T01:33:55;2.20;;;2.10;;
6898;SDS011;3488;42.616;23.350;2022-09-28T01:36:26;2.40;;;1.73;;
6898;SDS011;3488;42.616;23.350;2022-09-28T01:38:59;5.97;;;1.90;;
6898;SDS011;3488;42.616;23.350;2022-09-28T01:41:32;2.33;;;2.20;;
6898;SDS011;3488;42.616;23.350;2022-09-28T01:44:02;2.60;;;2.40;;
6898;SDS011;3488;42.616;23.350;2022-09-28T01:46:35;2.00;;;1.90;;
6898;SDS011;3488;42.616;23.350;2022-09-28T01:49:07;2.28;;;2.17;;
6898;SDS011;3488;42.616;23.350;2022-09-28T01:51:38;2.42;;;2.22;;
6898;SDS011;3488;42.616;23.350;2022-09-28T01:54:09;3.03;;;2.63;;
6898;SDS011;3488;42.616;23.350;2022-09-28T01:56:41;5.38;;;2.40;;
6898;SDS011;3488;42.616;23.350;2022-09-28T01:59:13;2.20;;;2.10;;
6898;SDS011;3488;42.616;23.350;2022-09-28T02:01:44;2.22;;;2.15;;
6898;SDS011;3488;42.616;23.350;2022-09-28T02:04:17;2.60;;;2.47;;
6898;SDS011;3488;42.616;23.350;2022-09-28T02:06:49;2.22;;;2.13;;
6898;SDS011;3488;42.616;23.350;2022-09-28T02:09:22;2.55;;;2.42;;
6898;SDS011;3488;42.616;23.350;2022-09-28T02:11:56;2.70;;;2.50;;
6898;SDS011;3488;42.616;23.350;2022-09-28T02:14:28;1.83;;;1.77;;
6898;SDS011;3488;42.616;23.350;2022-09-28T02:16:55;2.45;;;2.30;;
6898;SDS011;3488;42.616;23.350;2022-09-28T02:19:23;2.83;;;2.63;;
6898;SDS011;3488;42.616;23.350;2022-09-28T02:21:53;2.65;;;2.45;;
6898;SDS011;3488;42.616;23.350;2022-09-28T02:24:26;2.63;;;2.53;;
6898;SDS011;3488;42.616;23.350;2022-09-28T02:27:02;2.90;;;2.70;;
6898;SDS011;3488;42.616;23.350;2022-09-28T02:29:35;7.30;;;2.50;;
6898;SDS011;3488;42.616;23.350;2022-09-28T02:32:02;3.13;;;2.92;;
6898;SDS011;3488;42.616;23.350;2022-09-28T02:34:29;3.40;;;2.75;;
6898;SDS011;3488;42.616;23.350;2022-09-28T02:36:56;3.65;;;3.10;;
6898;SDS011;3488;42.616;23.350;2022-09-28T02:39:23;3.00;;;2.80;;
6898;SDS011;3488;42.616;23.350;2022-09-28T02:41:53;3.80;;;3.60;;
6898;SDS011;3488;42.616;23.350;2022-09-28T02:44:32;4.78;;;3.67;;
6898;SDS011;3488;42.616;23.350;2022-09-28T02:47:13;3.28;;;3.08;;
6898;SDS011;3488;42.616;23.350;2022-09-28T02:49:48;3.78;;;3.05;;
6898;SDS011;3488;42.616;23.350;2022-09-28T02:52:36;3.70;;;3.50;;
6898;SDS011;3488;42.616;23.350;2022-09-28T02:55:19;3.65;;;3.45;;
6898;SDS011;3488;42.616;23.350;2022-09-28T02:58:02;5.18;;;4.32;;
6898;SDS011;3488;42.616;23.350;2022-09-28T03:00:53;4.18;;;3.80;;
6898;SDS011;3488;42.616;23.350;2022-09-28T03:03:26;3.88;;;3.42;;
6898;SDS011;3488;42.616;23.350;2022-09-28T03:06:03;3.67;;;3.47;;
6898;SDS011;3488;42.616;23.350;2022-09-28T03:08:37;3.63;;;3.42;;
6898;SDS011;3488;42.616;23.350;2022-09-28T03:11:11;3.47;;;3.28;;
6898;SDS011;3488;42.616;23.350;2022-09-28T03:13:42;4.22;;;3.67;;
6898;SDS011;3488;42.616;23.350;2022-09-28T03:16:11;4.32;;;3.95;;
6898;SDS011;3488;42.616;23.350;2022-09-28T03:18:39;5.63;;;3.63;;
6898;SDS011;3488;42.616;23.350;2022-09-28T03:21:08;4.10;;;3.70;;
6898;SDS011;3488;42.616;23.350;2022-09-28T03:23:36;3.97;;;3.65;;
6898;SDS011;3488;42.616;23.350;2022-09-28T03:26:03;5.13;;;3.42;;
6898;SDS011;3488;42.616;23.350;2022-09-28T03:28:30;4.25;;;3.67;;
6898;SDS011;3488;42.616;23.350;2022-09-28T03:30:58;4.45;;;4.10;;
6898;SDS011;3488;42.616;23.350;2022-09-28T03:33:26;6.25;;;4.00;;
6898;SDS011;3488;42.616;23.350;2022-09-28T03:35:53;4.00;;;3.70;;
6898;SDS011;3488;42.616;23.350;2022-09-28T03:38:20;13.57;;;4.40;;
6898;SDS011;3488;42.616;23.350;2022-09-28T03:40:53;4.28;;;3.75;;
6898;SDS011;3488;42.616;23.350;2022-09-28T03:43:21;4.78;;;3.67;;
6898;SDS011;3488;42.616;23.350;2022-09-28T03:45:52;5.53;;;5.00;;
6898;SDS011;3488;42.616;23.350;2022-09-28T03:48:22;4.85;;;4.45;;
6898;SDS011;3488;42.616;23.350;2022-09-28T03:50:53;5.15;;;3.78;;
6898;SDS011;3488;42.616;23.350;2022-09-28T03:53:20;4.60;;;3.90;;
6898;SDS011;3488;42.616;23.350;2022-09-28T03:55:48;5.97;;;3.65;;
6898;SDS011;3488;42.616;23.350;2022-09-28T03:58:17;4.20;;;3.90;;
6898;SDS011;3488;42.616;23.350;2022-09-28T04:00:44;6.32;;;4.10;;
6898;SDS011;3488;42.616;23.350;2022-09-28T04:03:11;4.25;;;3.55;;
6898;SDS011;3488;42.616;23.350;2022-09-28T04:05:38;3.92;;;3.72;;
6898;SDS011;3488;42.616;23.350;2022-09-28T04:08:06;4.50;;;4.20;;
6898;SDS011;3488;42.616;23.350;2022-09-28T04:10:33;5.13;;;3.50;;
6898;SDS011;3488;42.616;23.350;2022-09-28T04:12:59;6.05;;;4.43;;
6898;SDS011;3488;42.616;23.350;2022-09-28T04:15:26;4.65;;;4.13;;
6898;SDS011;3488;42.616;23.350;2022-09-28T04:17:53;5.82;;;4.40;;
6898;SDS011;3488;42.616;23.350;2022-09-28T04:20:20;4.07;;;3.60;;
6898;SDS011;3488;42.616;23.350;2022-09-28T04:22:47;4.43;;;4.00;;
6898;SDS011;3488;42.616;23.350;2022-09-28T04:25:17;7.90;;;4.72;;
6898;SDS011;3488;42.616;23.350;2022-09-28T04:27:43;6.20;;;4.05;;
6898;SDS011;3488;42.616;23.350;2022-09-28T04:30:28;8.98;;;4.90;;
6898;SDS011;3488;42.616;23.350;2022-09-28T04:32:55;4.68;;;4.25;;
6898;SDS011;3488;42.616;23.350;2022-09-28T04:35:22;4.57;;;4.10;;
6898;SDS011;3488;42.616;23.350;2022-09-28T04:37:48;11.20;;;4.35;;
6898;SDS011;3488;42.616;23.350;2022-09-28T04:40:17;5.65;;;5.07;;
6898;SDS011;3488;42.616;23.350;2022-09-28T04:42:43;4.43;;;4.10;;
6898;SDS011;3488;42.616;23.350;2022-09-28T04:45:18;5.07;;;3.90;;
6898;SDS011;3488;42.616;23.350;2022-09-28T04:47:44;5.90;;;3.63;;
6898;SDS011;3488;42.616;23.350;2022-09-28T04:50:11;4.07;;;3.65;;
6898;SDS011;3488;42.616;23.350;2022-09-28T04:52:38;5.53;;;3.20;;
6898;SDS011;3488;42.616;23.350;2022-09-28T04:55:05;4.20;;;3.33;;
6898;SDS011;3488;42.616;23.350;2022-09-28T04:57:34;4.25;;;3.85;;
6898;SDS011;3488;42.616;23.350;2022-09-28T05:00:01;3.72;;;3.45;;
6898;SDS011;3488;42.616;23.350;2022-09-28T05:02:29;5.32;;;3.40;;
6898;SDS011;3488;42.616;23.350;2022-09-28T05:04:56;3.60;;;3.40;;
6898;SDS011;3488;42.616;23.350;2022-09-28T05:07:23;3.88;;;3.55;;
6898;SDS011;3488;42.616;23.350;2022-09-28T05:09:50;3.75;;;3.45;;
6898;SDS011;3488;42.616;23.350;2022-09-28T05:12:17;3.17;;;3.08;;
6898;SDS011;3488;42.616;23.350;2022-09-28T05:14:46;4.22;;;3.92;;
6898;SDS011;3488;42.616;23.350;2022-09-28T05:17:13;6.40;;;3.63;;
6898;SDS011;3488;42.616;23.350;2022-09-28T05:19:39;3.80;;;3.60;;
6898;SDS011;3488;42.616;23.350;2022-09-28T05:22:07;4.20;;;3.97;;
6898;SDS011;3488;42.616;23.350;2022-09-28T05:24:38;6.07;;;3.97;;
6898;SDS011;3488;42.616;23.350;2022-09-28T05:27:05;10.50;;;4.05;;
6898;SDS011;3488;42.616;23.350;2022-09-28T05:29:32;6.15;;;4.18;;
6898;SDS011;3488;42.616;23.350;2022-09-28T05:32:01;4.47;;;4.10;;
6898;SDS011;3488;42.616;23.350;2022-09-28T05:34:28;7.72;;;4.05;;
6898;SDS011;3488;42.616;23.350;2022-09-28T05:36:55;5.32;;;4.55;;
6898;SDS011;3488;42.616;23.350;2022-09-28T05:39:22;3.85;;;3.65;;
6898;SDS011;3488;42.616;23.350;2022-09-28T05:41:48;4.57;;;4.15;;
6898;SDS011;3488;42.616;23.350;2022-09-28T05:44:15;4.72;;;4.13;;
6898;SDS011;3488;42.616;23.350;2022-09-28T05:46:42;4.50;;;4.20;;
6898;SDS011;3488;42.616;23.350;2022-09-28T05:49:11;4.20;;;3.90;;
6898;SDS011;3488;42.616;23.350;2022-09-28T05:51:38;7.50;;;3.78;;
6898;SDS011;3488;42.616;23.350;2022-09-28T05:54:05;4.50;;;4.18;;
6898;SDS011;3488;42.616;23.350;2022-09-28T05:56:31;12.10;;;5.78;;
6898;SDS011;3488;42.616;23.350;2022-09-28T05:58:58;13.13;;;6.85;;
6898;SDS011;3488;42.616;23.350;2022-09-28T06:01:25;10.43;;;7.10;;
6898;SDS011;3488;42.616;23.350;2022-09-28T06:03:52;10.65;;;6.82;;
6898;SDS011;3488;42.616;23.350;2022-09-28T06:06:21;9.07;;;6.78;;
6898;SDS011;3488;42.616;23.350;2022-09-28T06:08:47;14.98;;;6.28;;
6898;SDS011;3488;42.616;23.350;2022-09-28T06:11:14;10.32;;;6.10;;
6898;SDS011;3488;42.616;23.350;2022-09-28T06:13:41;7.65;;;6.55;;
6898;SDS011;3488;42.616;23.350;2022-09-28T06:16:12;9.75;;;5.78;;
6898;SDS011;3488;42.616;23.350;2022-09-28T06:18:40;6.60;;;6.00;;
6898;SDS011;3488;42.616;23.350;2022-09-28T06:21:07;6.30;;;5.75;;
6898;SDS011;3488;42.616;23.350;2022-09-28T06:23:36;6.35;;;5.75;;
6898;SDS011;3488;42.616;23.350;2022-09-28T06:26:03;5.57;;;5.18;;
6898;SDS011;3488;42.616;23.350;2022-09-28T06:28:30;5.20;;;4.70;;
6898;SDS011;3488;42.616;23.350;2022-09-28T06:30:58;6.28;;;5.68;;
6898;SDS011;3488;42.616;23.350;2022-09-28T06:33:25;6.28;;;5.70;;
6898;SDS011;3488;42.616;23.350;2022-09-28T06:35:52;6.80;;;6.13;;
6898;SDS011;3488;42.616;23.350;2022-09-28T06:38:18;9.23;;;5.65;;
6898;SDS011;3488;42.616;23.350;2022-09-28T06:40:47;6.55;;;5.95;;
6898;SDS011;3488;42.616;23.350;2022-09-28T06:43:13;8.07;;;5.90;;
6898;SDS011;3488;42.616;23.350;2022-09-28T06:45:41;9.40;;;6.20;;
6898;SDS011;3488;42.616;23.350;2022-09-28T06:48:09;6.43;;;5.82;;
6898;SDS011;3488;42.616;23.350;2022-09-28T06:50:38;6.72;;;5.72;;
6898;SDS011;3488;42.616;23.350;2022-09-28T06:53:06;5.93;;;5.43;;
6898;SDS011;3488;42.616;23.350;2022-09-28T06:55:37;7.10;;;5.18;;
6898;SDS011;3488;42.616;23.350;2022-09-28T06:58:08;6.68;;;5.75;;
6898;SDS011;3488;42.616;23.350;2022-09-28T07:00:36;10.70;;;5.97;;
6898;SDS011;3488;42.616;23.350;2022-09-28T07:03:04;5.13;;;4.63;;
6898;SDS011;3488;42.616;23.350;2022-09-28T07:05:33;7.35;;;5.20;;
6898;SDS011;3488;42.616;23.350;2022-09-28T07:08:02;9.05;;;5.80;;
6898;SDS011;3488;42.616;23.350;2022-09-28T07:10:29;7.40;;;5.10;;
6898;SDS011;3488;42.616;23.350;2022-09-28T07:12:58;6.05;;;3.88;;
6898;SDS011;3488;42.616;23.350;2022-09-28T07:15:29;6.50;;;5.13;;
6898;SDS011;3488;42.616;23.350;2022-09-28T07:17:57;5.25;;;4.85;;
6898;SDS011;3488;42.616;23.350;2022-09-28T07:20:25;8.80;;;5.80;;
6898;SDS011;3488;42.616;23.350;2022-09-28T07:22:52;10.23;;;5.53;;
6898;SDS011;3488;42.616;23.350;2022-09-28T07:25:19;10.15;;;6.47;;
6898;SDS011;3488;42.616;23.350;2022-09-28T07:27:47;8.68;;;7.15;;
6898;SDS011;3488;42.616;23.350;2022-09-28T07:30:14;10.98;;;7.88;;
6898;SDS011;3488;42.616;23.350;2022-09-28T07:32:43;11.43;;;7.93;;
6898;SDS011;3488;42.616;23.350;2022-09-28T07:35:10;14.38;;;9.95;;
6898;SDS011;3488;42.616;23.350;2022-09-28T07:37:37;20.35;;;10.57;;
6898;SDS011;3488;42.616;23.350;2022-09-28T07:40:04;13.77;;;11.95;;
6898;SDS011;3488;42.616;23.350;2022-09-28T07:42:51;22.65;;;12.85;;
6898;SDS011;3488;42.616;23.350;2022-09-28T07:45:18;17.50;;;11.10;;
6898;SDS011;3488;42.616;23.350;2022-09-28T07:47:50;16.92;;;12.00;;
6898;SDS011;3488;42.616;23.350;2022-09-28T07:50:20;13.65;;;11.32;;
6898;SDS011;3488;42.616;23.350;2022-09-28T07:52:47;21.52;;;11.32;;
6898;SDS011;3488;42.616;23.350;2022-09-28T07:55:14;13.23;;;9.77;;
6898;SDS011;3488;42.616;23.350;2022-09-28T07:57:41;14.60;;;9.05;;
6898;SDS011;3488;42.616;23.350;2022-09-28T08:00:09;14.35;;;8.57;;
6898;SDS011;3488;42.616;23.350;2022-09-28T08:02:36;12.82;;;8.95;;
6898;SDS011;3488;42.616;23.350;2022-09-28T08:05:05;10.73;;;8.43;;
6898;SDS011;3488;42.616;23.350;2022-09-28T08:07:34;8.68;;;7.78;;
6898;SDS011;3488;42.616;23.350;2022-09-28T08:10:02;12.00;;;8.15;;
6898;SDS011;3488;42.616;23.350;2022-09-28T08:12:30;10.60;;;7.70;;
6898;SDS011;3488;42.616;23.350;2022-09-28T08:14:57;12.82;;;8.48;;
6898;SDS011;3488;42.616;23.350;2022-09-28T08:17:24;12.13;;;9.65;;
6898;SDS011;3488;42.616;23.350;2022-09-28T08:19:51;10.52;;;9.43;;
6898;SDS011;3488;42.616;23.350;2022-09-28T08:22:36;11.32;;;9.48;;
6898;SDS011;3488;42.616;23.350;2022-09-28T08:25:04;10.65;;;8.27;;
6898;SDS011;3488;42.616;23.350;2022-09-28T08:27:31;12.90;;;8.52;;
6898;SDS011;3488;42.616;23.350;2022-09-28T08:29:58;9.77;;;7.10;;
6898;SDS011;3488;42.616;23.350;2022-09-28T08:32:25;11.10;;;7.32;;
6898;SDS011;3488;42.616;23.350;2022-09-28T08:34:53;9.32;;;7.22;;
6898;SDS011;3488;42.616;23.350;2022-09-28T08:37:21;9.13;;;7.07;;
6898;SDS011;3488;42.616;23.350;2022-09-28T08:39:49;8.18;;;6.45;;
6898;SDS011;3488;42.616;23.350;2022-09-28T08:42:21;6.38;;;5.32;;
6898;SDS011;3488;42.616;23.350;2022-09-28T08:44:57;7.82;;;5.43;;
6898;SDS011;3488;42.616;23.350;2022-09-28T08:47:33;5.95;;;4.28;;
6898;SDS011;3488;42.616;23.350;2022-09-28T08:50:30;10.32;;;3.97;;
6898;SDS011;3488;42.616;23.350;2022-09-28T08:53:02;7.57;;;4.55;;
6898;SDS011;3488;42.616;23.350;2022-09-28T08:55:40;7.07;;;4.55;;
6898;SDS011;3488;42.616;23.350;2022-09-28T08:58:09;5.55;;;3.83;;
6898;SDS011;3488;42.616;23.350;2022-09-28T09:00:41;4.13;;;3.58;;
6898;SDS011;3488;42.616;23.350;2022-09-28T09:03:12;6.95;;;3.10;;
6898;SDS011;3488;42.616;23.350;2022-09-28T09:05:44;5.68;;;3.20;;
6898;SDS011;3488;42.616;23.350;2022-09-28T09:08:28;5.82;;;3.08;;
6898;SDS011;3488;42.616;23.350;2022-09-28T09:11:09;3.10;;;2.90;;
6898;SDS011;3488;42.616;23.350;2022-09-28T09:16:36;4.07;;;3.78;;
6898;SDS011;3488;42.616;23.350;2022-09-28T09:19:14;3.75;;;3.42;;
6898;SDS011;3488;42.616;23.350;2022-09-28T09:21:44;3.53;;;3.25;;
6898;SDS011;3488;42.616;23.350;2022-09-28T09:24:17;12.38;;;3.55;;
6898;SDS011;3488;42.616;23.350;2022-09-28T09:26:56;5.60;;;3.65;;
6898;SDS011;3488;42.616;23.350;2022-09-28T09:29:32;5.82;;;4.00;;
6898;SDS011;3488;42.616;23.350;2022-09-28T09:32:16;3.72;;;3.33;;
6898;SDS011;3488;42.616;23.350;2022-09-28T09:34:58;5.57;;;3.55;;
6898;SDS011;3488;42.616;23.350;2022-09-28T09:37:56;5.65;;;3.28;;
6898;SDS011;3488;42.616;23.350;2022-09-28T09:40:37;8.57;;;3.80;;
6898;SDS011;3488;42.616;23.350;2022-09-28T09:46:14;7.72;;;3.47;;
6898;SDS011;3488;42.616;23.350;2022-09-28T09:48:46;8.68;;;3.70;;
6898;SDS011;3488;42.616;23.350;2022-09-28T09:51:20;6.85;;;3.30;;
6898;SDS011;3488;42.616;23.350;2022-09-28T09:53:51;5.72;;;3.40;;
6898;SDS011;3488;42.616;23.350;2022-09-28T09:56:26;9.93;;;3.85;;
6898;SDS011;3488;42.616;23.350;2022-09-28T09:59:02;5.97;;;3.08;;
6898;SDS011;3488;42.616;23.350;2022-09-28T10:01:34;8.00;;;3.58;;
6898;SDS011;3488;42.616;23.350;2022-09-28T10:04:04;5.85;;;2.70;;
6898;SDS011;3488;42.616;23.350;2022-09-28T10:06:39;5.57;;;3.40;;
6898;SDS011;3488;42.616;23.350;2022-09-28T10:09:09;4.47;;;3.10;;
6898;SDS011;3488;42.616;23.350;2022-09-28T10:11:42;5.80;;;3.58;;
6898;SDS011;3488;42.616;23.350;2022-09-28T10:14:14;4.13;;;2.80;;
6898;SDS011;3488;42.616;23.350;2022-09-28T10:16:44;7.90;;;3.50;;
6898;SDS011;3488;42.616;23.350;2022-09-28T10:19:13;6.20;;;3.25;;
6898;SDS011;3488;42.616;23.350;2022-09-28T10:21:42;8.95;;;2.55;;
6898;SDS011;3488;42.616;23.350;2022-09-28T10:24:14;5.97;;;2.42;;
6898;SDS011;3488;42.616;23.350;2022-09-28T10:26:45;2.33;;;2.08;;
6898;SDS011;3488;42.616;23.350;2022-09-28T10:29:19;4.28;;;3.45;;
6898;SDS011;3488;42.616;23.350;2022-09-28T10:31:47;3.08;;;2.63;;
6898;SDS011;3488;42.616;23.350;2022-09-28T10:34:16;4.45;;;2.50;;
6898;SDS011;3488;42.616;23.350;2022-09-28T10:36:51;3.15;;;2.00;;
6898;SDS011;3488;42.616;23.350;2022-09-28T10:39:25;5.47;;;2.10;;
6898;SDS011;3488;42.616;23.350;2022-09-28T10:41:55;2.72;;;2.50;;
6898;SDS011;3488;42.616;23.350;2022-09-28T10:44:25;2.78;;;2.20;;
6898;SDS011;3488;42.616;23.350;2022-09-28T10:46:55;4.47;;;2.92;;
6898;SDS011;3488;42.616;23.350;2022-09-28T10:49:25;2.17;;;1.95;;
6898;SDS011;3488;42.616;23.350;2022-09-28T10:51:53;1.77;;;1.67;;
6898;SDS011;3488;42.616;23.350;2022-09-28T10:54:22;4.60;;;2.38;;
6898;SDS011;3488;42.616;23.350;2022-09-28T10:56:50;2.67;;;1.95;;
6898;SDS011;3488;42.616;23.350;2022-09-28T10:59:23;3.33;;;1.65;;
6898;SDS011;3488;42.616;23.350;2022-09-28T11:02:03;3.80;;;1.63;;
6898;SDS011;3488;42.616;23.350;2022-09-28T11:04:48;3.17;;;1.40;;
6898;SDS011;3488;42.616;23.350;2022-09-28T11:07:16;3.15;;;2.25;;
6898;SDS011;3488;42.616;23.350;2022-09-28T11:09:45;2.60;;;2.40;;
6898;SDS011;3488;42.616;23.350;2022-09-28T11:12:14;2.78;;;1.70;;
6898;SDS011;3488;42.616;23.350;2022-09-28T11:14:46;4.43;;;1.92;;
6898;SDS011;3488;42.616;23.350;2022-09-28T11:17:19;3.58;;;1.75;;
6898;SDS011;3488;42.616;23.350;2022-09-28T11:19:51;2.17;;;1.40;;
6898;SDS011;3488;42.616;23.350;2022-09-28T11:22:19;2.05;;;1.90;;
6898;SDS011;3488;42.616;23.350;2022-09-28T11:25:04;5.20;;;1.48;;
6898;SDS011;3488;42.616;23.350;2022-09-28T11:27:38;2.05;;;1.83;;
6898;SDS011;3488;42.616;23.350;2022-09-28T11:30:17;2.00;;;1.55;;
6898;SDS011;3488;42.616;23.350;2022-09-28T11:32:48;1.70;;;1.60;;
6898;SDS011;3488;42.616;23.350;2022-09-28T11:35:18;2.45;;;1.58;;
6898;SDS011;3488;42.616;23.350;2022-09-28T11:38:08;3.30;;;1.60;;
6898;SDS011;3488;42.616;23.350;2022-09-28T11:40:50;5.38;;;1.75;;
6898;SDS011;3488;42.616;23.350;2022-09-28T11:43:34;2.05;;;1.58;;
6898;SDS011;3488;42.616;23.350;2022-09-28T11:46:40;2.63;;;1.67;;
6898;SDS011;3488;42.616;23.350;2022-09-28T11:49:21;1.77;;;1.50;;
6898;SDS011;3488;42.616;23.350;2022-09-28T11:51:56;2.83;;;1.48;;
6898;SDS011;3488;42.616;23.350;2022-09-28T11:54:30;1.80;;;1.70;;
6898;SDS011;3488;42.616;23.350;2022-09-28T11:57:02;1.48;;;1.38;;
6898;SDS011;3488;42.616;23.350;2022-09-28T11:59:32;6.00;;;2.17;;
6898;SDS011;3488;42.616;23.350;2022-09-28T12:02:09;2.40;;;1.58;;
6898;SDS011;3488;42.616;23.350;2022-09-28T12:04:41;1.50;;;1.48;;
6898;SDS011;3488;42.616;23.350;2022-09-28T12:07:13;4.18;;;1.73;;
6898;SDS011;3488;42.616;23.350;2022-09-28T12:09:45;4.15;;;1.85;;
6898;SDS011;3488;42.616;23.350;2022-09-28T12:12:20;1.30;;;1.30;;
6898;SDS011;3488;42.616;23.350;2022-09-28T12:14:51;2.67;;;1.38;;
6898;SDS011;3488;42.616;23.350;2022-09-28T12:17:23;1.65;;;1.58;;
6898;SDS011;3488;42.616;23.350;2022-09-28T12:19:57;1.60;;;1.50;;
6898;SDS011;3488;42.616;23.350;2022-09-28T12:22:29;4.57;;;1.65;;
6898;SDS011;3488;42.616;23.350;2022-09-28T12:25:00;1.50;;;1.40;;
6898;SDS011;3488;42.616;23.350;2022-09-28T12:27:30;1.45;;;1.38;;
6898;SDS011;3488;42.616;23.350;2022-09-28T12:30:04;2.67;;;1.65;;
6898;SDS011;3488;42.616;23.350;2022-09-28T12:32:42;1.80;;;1.35;;
6898;SDS011;3488;42.616;23.350;2022-09-28T12:35:14;1.52;;;1.42;;
6898;SDS011;3488;42.616;23.350;2022-09-28T12:37:50;1.48;;;1.38;;
6898;SDS011;3488;42.616;23.350;2022-09-28T12:40:32;3.80;;;1.20;;
6898;SDS011;3488;42.616;23.350;2022-09-28T12:46:12;2.20;;;1.73;;
6898;SDS011;3488;42.616;23.350;2022-09-28T12:49:00;1.88;;;1.40;;
6898;SDS011;3488;42.616;23.350;2022-09-28T12:51:57;1.45;;;1.33;;
6898;SDS011;3488;42.616;23.350;2022-09-28T12:54:31;2.45;;;1.70;;
6898;SDS011;3488;42.616;23.350;2022-09-28T12:57:29;5.75;;;2.03;;
6898;SDS011;3488;42.616;23.350;2022-09-28T13:00:07;2.10;;;1.90;;
6898;SDS011;3488;42.616;23.350;2022-09-28T13:02:47;3.63;;;1.73;;
6898;SDS011;3488;42.616;23.350;2022-09-28T13:05:59;1.45;;;1.35;;
6898;SDS011;3488;42.616;23.350;2022-09-28T13:08:58;1.63;;;1.52;;
6898;SDS011;3488;42.616;23.350;2022-09-28T13:11:41;3.63;;;1.92;;
6898;SDS011;3488;42.616;23.350;2022-09-28T13:14:23;4.40;;;2.17;;
6898;SDS011;3488;42.616;23.350;2022-09-28T13:17:13;2.05;;;1.90;;
6898;SDS011;3488;42.616;23.350;2022-09-28T13:19:50;1.70;;;1.60;;
6898;SDS011;3488;42.616;23.350;2022-09-28T13:22:27;3.75;;;1.55;;
6898;SDS011;3488;42.616;23.350;2022-09-28T13:25:01;5.10;;;2.33;;
6898;SDS011;3488;42.616;23.350;2022-09-28T13:27:32;3.67;;;1.83;;
6898;SDS011;3488;42.616;23.350;2022-09-28T13:30:03;3.05;;;1.90;;
6898;SDS011;3488;42.616;23.350;2022-09-28T13:32:32;3.50;;;1.83;;
6898;SDS011;3488;42.616;23.350;2022-09-28T13:35:03;1.92;;;1.42;;
6898;SDS011;3488;42.616;23.350;2022-09-28T13:37:32;3.10;;;1.58;;
6898;SDS011;3488;42.616;23.350;2022-09-28T13:39:59;1.60;;;1.50;;
6898;SDS011;3488;42.616;23.350;2022-09-28T13:45:32;1.60;;;1.50;;
6898;SDS011;3488;42.616;23.350;2022-09-28T13:48:16;1.92;;;1.70;;
6898;SDS011;3488;42.616;23.350;2022-09-28T13:50:52;1.92;;;1.73;;
6898;SDS011;3488;42.616;23.350;2022-09-28T13:53:42;3.97;;;2.10;;
6898;SDS011;3488;42.616;23.350;2022-09-28T13:56:26;2.65;;;1.65;;
6898;SDS011;3488;42.616;23.350;2022-09-28T13:59:00;3.00;;;2.08;;
6898;SDS011;3488;42.616;23.350;2022-09-28T14:01:40;2.03;;;1.92;;
6898;SDS011;3488;42.616;23.350;2022-09-28T14:04:16;3.63;;;1.63;;
6898;SDS011;3488;42.616;23.350;2022-09-28T14:06:48;4.65;;;1.70;;
6898;SDS011;3488;42.616;23.350;2022-09-28T14:09:24;6.38;;;1.80;;
6898;SDS011;3488;42.616;23.350;2022-09-28T14:15:13;2.72;;;2.53;;
6898;SDS011;3488;42.616;23.350;2022-09-28T14:18:09;6.70;;;5.32;;
6898;SDS011;3488;42.616;23.350;2022-09-28T14:20:46;2.80;;;2.60;;
6898;SDS011;3488;42.616;23.350;2022-09-28T14:23:27;7.22;;;3.50;;
6898;SDS011;3488;42.616;23.350;2022-09-28T14:26:30;3.55;;;1.80;;
6898;SDS011;3488;42.616;23.350;2022-09-28T14:29:20;1.60;;;1.50;;
6898;SDS011;3488;42.616;23.350;2022-09-28T14:31:54;3.35;;;1.58;;
6898;SDS011;3488;42.616;23.350;2022-09-28T14:34:28;4.10;;;1.98;;
6898;SDS011;3488;42.616;23.350;2022-09-28T14:36:58;1.40;;;1.30;;
6898;SDS011;3488;42.616;23.350;2022-09-28T14:39:44;2.78;;;1.40;;
6898;SDS011;3488;42.616;23.350;2022-09-28T14:42:29;4.55;;;1.85;;
6898;SDS011;3488;42.616;23.350;2022-09-28T14:50:47;2.45;;;2.10;;
6898;SDS011;3488;42.616;23.350;2022-09-28T14:53:17;4.18;;;1.23;;
6898;SDS011;3488;42.616;23.350;2022-09-28T14:55:49;2.70;;;1.63;;
6898;SDS011;3488;42.616;23.350;2022-09-28T14:58:21;2.67;;;1.58;;
6898;SDS011;3488;42.616;23.350;2022-09-28T15:00:52;1.10;;;1.00;;
6898;SDS011;3488;42.616;23.350;2022-09-28T15:03:25;7.78;;;2.58;;
6898;SDS011;3488;42.616;23.350;2022-09-28T15:05:54;1.20;;;1.20;;
6898;SDS011;3488;42.616;23.350;2022-09-28T15:08:22;1.67;;;1.23;;
6898;SDS011;3488;42.616;23.350;2022-09-28T15:11:01;1.27;;;1.17;;
6898;SDS011;3488;42.616;23.350;2022-09-28T15:13:28;0.75;;;0.75;;
6898;SDS011;3488;42.616;23.350;2022-09-28T15:15:57;0.90;;;0.90;;
6898;SDS011;3488;42.616;23.350;2022-09-28T15:18:36;3.10;;;1.17;;
6898;SDS011;3488;42.616;23.350;2022-09-28T15:21:34;1.83;;;1.05;;
6898;SDS011;3488;42.616;23.350;2022-09-28T15:26:51;0.90;;;0.90;;
6898;SDS011;3488;42.616;23.350;2022-09-28T15:29:19;1.40;;;1.08;;
6898;SDS011;3488;42.616;23.350;2022-09-28T15:31:47;2.08;;;1.17;;
6898;SDS011;3488;42.616;23.350;2022-09-28T15:34:26;8.45;;;1.48;;
6898;SDS011;3488;42.616;23.350;2022-09-28T15:37:11;3.60;;;0.93;;
6898;SDS011;3488;42.616;23.350;2022-09-28T15:39:41;1.15;;;0.80;;
6898;SDS011;3488;42.616;23.350;2022-09-28T15:42:08;2.05;;;1.23;;
6898;SDS011;3488;42.616;23.350;2022-09-28T15:44:35;1.27;;;1.27;;
6898;SDS011;3488;42.616;23.350;2022-09-28T15:47:04;1.50;;;1.13;;
6898;SDS011;3488;42.616;23.350;2022-09-28T15:49:36;1.23;;;1.23;;
6898;SDS011;3488;42.616;23.350;2022-09-28T15:52:22;1.52;;;1.40;;
6898;SDS011;3488;42.616;23.350;2022-09-28T15:54:53;1.83;;;1.17;;